Terminal Aerodrome Forecast
Issued by NWS Pueblo, CO

Home | Current Version | Previous Version | Text Only | Print | Product List | Glossary On
Versions: 1 2 3 4 5 6 7 8 9 10 11 12 13 14 15 16 17 18 19 20 21 22 23 24 25 26 27 28 29 30
000
FTUS45 KPUB 311140
TAFPUB
TAF
KPUB 311140Z 3112/0112 33008KT P6SM SCT090 SCT150
     FM311700 03010KT P6SM VCSH SCT080 BKN120
     FM312000 07009KT P6SM VCTS SCT080CB BKN120
     FM312200 33012G22KT P6SM VCTS BKN090CB
     FM010200 36010KT P6SM SCT100 BKN150
     FM010500 32007KT P6SM SCT110 SCT200=

USA.gov is the U.S. government's official web portal to all federal, state and local government web resources and services.